Time;durP1;ratioP1;P1;durP2;ratioP2;P2;SDS_P1;SDS_P2;PMS_P1;PMS_P2;Temp;Humidity;BMP_temperature;BMP_pressure;BME280_temperature;BME280_humidity;BME280_pressure;Samples;Min_cycle;Max_cycle;Signal;HPM_P1;HPM_P2
2021/04/21 00:01:08;;;;;;;25.17;17.70;;;;;;;6.33;77.71;95642.22;4971427;28;20416;-46
2021/04/21 00:03:35;;;;;;;26.35;17.70;;;;;;;6.15;78.43;95642.50;4971538;28;20113;-47
2021/04/21 00:06:03;;;;;;;25.52;18.25;;;;;;;5.95;79.12;95641.16;4972202;28;20053;-45
2021/04/21 00:08:31;;;;;;;26.27;17.55;;;;;;;5.80;79.50;95639.63;4971397;28;20658;-47
2021/04/21 00:10:59;;;;;;;24.77;18.05;;;;;;;5.75;79.98;95631.69;4972140;28;20050;-46
2021/04/21 00:13:26;;;;;;;26.77;17.75;;;;;;;5.74;80.13;95647.00;4970664;28;20069;-48
2021/04/21 00:15:53;;;;;;;27.92;19.08;;;;;;;5.77;80.13;95635.66;4972072;28;20058;-45
2021/04/21 00:18:22;;;;;;;25.40;18.35;;;;;;;5.74;80.36;95640.84;4971904;28;20058;-43
2021/04/21 00:21:00;;;;;;;23.40;17.85;;;;;;;5.67;80.30;95625.19;4971770;28;20107;-46
2021/04/21 00:23:28;;;;;;;23.88;17.83;;;;;;;5.64;80.51;95625.81;4969891;28;20126;-46
2021/04/21 00:26:02;;;;;;;28.45;18.17;;;;;;;5.61;80.73;95629.09;4971896;28;20075;-44
2021/04/21 00:28:32;;;;;;;26.10;18.02;;;;;;;5.61;81.04;95621.84;4971828;28;20061;-45
2021/04/21 00:31:11;;;;;;;24.90;18.60;;;;;;;5.67;81.11;95619.81;4971209;28;20492;-45
2021/04/21 00:33:39;;;;;;;27.27;18.08;;;;;;;5.75;80.99;95626.31;4971302;28;20063;-46
2021/04/21 00:36:15;;;;;;;24.92;18.52;;;;;;;5.62;80.49;95623.44;4971923;28;20086;-44
2021/04/21 00:38:45;;;;;;;25.90;17.63;;;;;;;5.56;80.87;95624.66;4974907;28;20370;-44
2021/04/21 00:41:36;;;;;;;27.13;18.83;;;;;;;5.48;81.15;95621.91;4975704;28;20058;-42
2021/04/21 00:44:22;;;;;;;24.25;17.45;;;;;;;5.44;81.30;95610.22;4974764;28;20065;-44
2021/04/21 00:46:57;;;;;;;26.05;17.48;;;;;;;5.39;81.20;95606.59;4975619;28;20070;-46
2021/04/21 00:49:53;;;;;;;26.08;18.23;;;;;;;5.31;81.44;95604.63;4975450;28;20065;-44
2021/04/21 00:52:40;;;;;;;23.02;17.35;;;;;;;5.30;81.49;95599.56;4971977;28;20416;-46
2021/04/21 00:55:15;;;;;;;28.13;18.10;;;;;;;5.30;81.43;95603.03;4973850;28;20518;-46
2021/04/21 00:57:51;;;;;;;22.33;16.70;;;;;;;5.32;81.68;95602.72;4973726;28;20587;-47
2021/04/21 01:00:31;;;;;;;24.95;17.80;;;;;;;5.28;81.87;95602.56;4973006;28;20436;-43
2021/04/21 01:03:19;;;;;;;21.98;15.98;;;;;;;5.19;81.78;95599.00;4972814;28;20126;-45
2021/04/21 01:06:14;;;;;;;28.13;16.75;;;;;;;5.18;81.89;95592.06;4973404;28;20532;-45
2021/04/21 01:08:50;;;;;;;24.73;16.73;;;;;;;5.16;82.06;95594.25;4971262;28;20054;-45
2021/04/21 01:11:49;;;;;;;23.27;16.02;;;;;;;5.06;81.88;95595.28;4974658;28;20639;-44
2021/04/21 01:14:24;;;;;;;22.83;16.77;;;;;;;4.98;82.17;95593.38;4975837;28;20093;-44
2021/04/21 01:16:59;;;;;;;24.35;16.23;;;;;;;4.97;82.14;95590.97;4973534;28;20082;-45
2021/04/21 01:19:56;;;;;;;23.40;16.75;;;;;;;4.88;82.25;95583.66;4974619;28;20055;-48
2021/04/21 01:22:48;;;;;;;22.27;16.27;;;;;;;4.84;82.21;95588.06;4973376;28;20078;-45
2021/04/21 01:25:24;;;;;;;22.38;16.83;;;;;;;4.73;82.72;95591.28;4974805;28;20117;-46
2021/04/21 01:28:00;;;;;;;26.30;16.67;;;;;;;4.72;82.91;95595.84;4973194;28;20055;-45
2021/04/21 01:30:29;;;;;;;23.90;15.57;;;;;;;4.67;82.97;95588.69;4974176;28;20533;-45
2021/04/21 01:32:59;;;;;;;23.52;16.33;;;;;;;4.65;83.08;95598.16;4974188;28;20059;-44
2021/04/21 01:35:28;;;;;;;23.83;15.70;;;;;;;4.62;82.96;95601.44;4974511;28;20055;-44
2021/04/21 01:37:59;;;;;;;24.05;16.02;;;;;;;4.59;83.02;95594.00;4973359;28;20047;-44
2021/04/21 01:40:29;;;;;;;22.10;15.60;;;;;;;4.58;83.18;95600.44;4973729;28;20051;-46
2021/04/21 01:43:00;;;;;;;20.00;14.00;;;;;;;4.60;83.09;95601.72;4972565;28;20051;-43
2021/04/21 01:45:29;;;;;;;18.30;13.57;;;;;;;4.62;82.81;95596.88;4974416;28;20109;-45
2021/04/21 01:48:03;;;;;;;20.92;14.55;;;;;;;4.72;82.78;95603.88;4973941;28;20046;-45
2021/04/21 01:50:30;;;;;;;22.67;14.30;;;;;;;4.71;82.28;95596.13;4972972;28;20615;-44
2021/04/21 01:53:18;;;;;;;19.50;13.10;;;;;;;4.80;82.12;95597.78;4973518;28;20566;-46
2021/04/21 01:56:01;;;;;;;19.10;13.57;;;;;;;4.86;81.43;95591.22;4974154;28;20169;-45
2021/04/21 01:58:31;;;;;;;17.80;13.05;;;;;;;4.74;81.73;95592.84;4974280;28;20398;-45
2021/04/21 02:01:24;;;;;;;19.70;14.25;;;;;;;4.59;82.02;95600.16;4973465;28;20074;-47
2021/04/21 02:03:59;;;;;;;17.75;12.48;;;;;;;4.75;81.17;95600.59;4964187;28;20470;-46
2021/04/21 02:06:43;;;;;;;17.67;13.27;;;;;;;4.81;81.12;95598.56;4974904;28;20051;-46
2021/04/21 02:09:31;;;;;;;16.20;11.98;;;;;;;4.80;81.10;95597.78;4973222;28;20070;-45
2021/04/21 02:12:37;;;;;;;18.77;12.15;;;;;;;4.85;80.86;95595.00;4972208;28;20051;-45
2021/04/21 02:15:19;;;;;;;16.95;11.82;;;;;;;4.79;80.95;95595.41;4954741;28;20051;-42
2021/04/21 02:18:07;;;;;;;17.80;11.90;;;;;;;4.66;81.19;95594.38;4954558;28;20051;-46
2021/04/21 02:21:02;;;;;;;19.48;13.10;;;;;;;4.54;81.49;95596.78;4953262;29;20417;-46
2021/04/21 02:23:44;;;;;;;19.25;13.07;;;;;;;4.41;82.09;95591.13;4971423;28;20054;-49
2021/04/21 02:26:39;;;;;;;16.02;12.07;;;;;;;4.36;82.22;95601.97;4973855;28;20055;-48
2021/04/21 02:29:18;;;;;;;18.05;12.57;;;;;;;4.41;82.17;95599.19;4953934;28;20055;-47
2021/04/21 02:31:47;;;;;;;18.33;12.77;;;;;;;4.39;82.27;95597.91;4953843;28;20101;-48
2021/04/21 02:34:38;;;;;;;16.50;12.43;;;;;;;4.37;82.11;95598.19;4956369;28;20055;-49
2021/04/21 02:37:10;;;;;;;17.38;11.85;;;;;;;4.28;81.93;95600.00;4972745;28;20051;-46
2021/04/21 02:40:02;;;;;;;18.33;12.27;;;;;;;4.19;82.21;95593.75;4973387;28;20051;-46
2021/04/21 02:42:55;;;;;;;18.58;12.60;;;;;;;4.06;82.75;95590.00;4970504;28;20385;-47
2021/04/21 02:45:45;;;;;;;17.02;11.57;;;;;;;4.09;82.87;95594.75;4969774;28;20142;-46
2021/04/21 02:48:18;;;;;;;16.85;12.30;;;;;;;4.11;83.05;95591.78;4972042;28;20054;-47
2021/04/21 02:51:10;;;;;;;15.88;11.63;;;;;;;4.12;82.95;95590.69;4972912;28;20559;-45
2021/04/21 02:53:50;;;;;;;17.77;11.50;;;;;;;3.98;82.98;95594.16;4970541;28;20142;-45
2021/04/21 02:56:54;;;;;;;15.52;11.68;;;;;;;4.00;82.86;95585.84;4987873;28;20074;-48
2021/04/21 02:59:37;;;;;;;17.73;11.60;;;;;;;3.85;83.29;95583.47;4973246;28;20504;-46
2021/04/21 03:02:15;;;;;;;16.23;11.40;;;;;;;3.83;83.30;95585.63;4971319;28;20109;-45
2021/04/21 03:05:06;;;;;;;15.48;11.32;;;;;;;3.80;83.50;95589.69;4973329;28;20082;-50
2021/04/21 03:07:57;;;;;;;14.65;11.23;;;;;;;3.72;83.43;95587.72;4973048;28;20055;-47
2021/04/21 03:10:30;;;;;;;13.02;9.98;;;;;;;3.65;83.90;95587.34;4972608;28;20054;-45
2021/04/21 03:13:11;;;;;;;17.23;11.60;;;;;;;3.56;83.76;95584.53;4971810;28;20054;-45
2021/04/21 03:15:44;;;;;;;16.63;11.68;;;;;;;3.52;84.08;95588.91;4972969;28;20059;-46
2021/04/21 03:18:17;;;;;;;17.23;11.90;;;;;;;3.50;84.18;95578.47;4972804;28;20129;-50
2021/04/21 03:20:50;;;;;;;16.55;11.35;;;;;;;3.47;84.36;95586.31;4972076;28;20111;-45
2021/04/21 03:23:19;;;;;;;16.17;10.77;;;;;;;3.39;84.35;95585.13;4972267;28;20376;-45
2021/04/21 03:25:47;;;;;;;17.45;11.50;;;;;;;3.48;84.02;95580.69;4972784;28;20109;-43
2021/04/21 03:28:18;;;;;;;15.52;11.52;;;;;;;3.43;84.51;95579.97;4972329;28;20113;-45
2021/04/21 03:30:47;;;;;;;14.93;10.52;;;;;;;3.43;84.54;95586.09;4972100;28;20055;-44
2021/04/21 03:33:22;;;;;;;16.63;11.20;;;;;;;3.40;84.37;95573.31;4972357;28;20492;-48
2021/04/21 03:35:52;;;;;;;18.05;11.43;;;;;;;3.40;84.51;95583.22;4972553;28;20117;-44
2021/04/21 03:38:20;;;;;;;16.05;11.02;;;;;;;3.41;84.50;95574.09;4971841;28;20397;-47
2021/04/21 03:40:47;;;;;;;13.27;9.25;;;;;;;3.47;84.46;95579.06;4971078;28;20105;-46
2021/04/21 03:43:14;;;;;;;15.13;11.35;;;;;;;3.53;84.49;95576.31;4963661;28;20051;-47
2021/04/21 03:45:44;;;;;;;14.35;10.00;;;;;;;3.38;84.18;95577.38;4953186;28;20154;-46
2021/04/21 03:48:14;;;;;;;20.60;12.38;;;;;;;3.28;84.51;95570.31;4953086;28;20110;-46
2021/04/21 03:50:43;;;;;;;14.55;10.95;;;;;;;3.51;84.74;95584.66;4952955;28;20402;-45
2021/04/21 03:53:13;;;;;;;13.63;9.82;;;;;;;3.70;83.73;95576.53;4952953;28;20075;-43
2021/04/21 03:55:41;;;;;;;14.40;10.07;;;;;;;3.79;83.25;95568.59;4953085;28;20481;-46
2021/04/21 03:58:11;;;;;;;13.45;9.40;;;;;;;3.84;82.90;95571.97;4951812;28;20047;-45
2021/04/21 04:00:40;;;;;;;14.25;9.75;;;;;;;3.67;83.00;95561.06;4961800;28;20452;-46
2021/04/21 04:03:14;;;;;;;14.05;9.40;;;;;;;3.65;82.43;95579.31;4972280;28;20054;-49
2021/04/21 04:05:48;;;;;;;14.95;9.00;;;;;;;3.58;82.85;95576.22;4972862;28;20542;-48
2021/04/21 04:08:17;;;;;;;12.50;8.60;;;;;;;3.64;82.81;95577.69;4971636;28;20055;-48
2021/04/21 04:10:51;;;;;;;14.43;9.40;;;;;;;3.69;82.73;95573.06;4990046;28;20050;-45
2021/04/21 04:13:19;;;;;;;13.68;9.18;;;;;;;3.70;82.96;95576.53;4982120;28;20397;-46
2021/04/21 04:15:49;;;;;;;12.05;8.02;;;;;;;3.63;82.69;95573.44;4972461;28;20062;-46
2021/04/21 04:18:16;;;;;;;14.35;8.88;;;;;;;3.48;82.97;95578.00;4972253;28;20479;-48
2021/04/21 04:20:44;;;;;;;13.93;9.60;;;;;;;3.43;82.92;95563.91;4972286;28;20062;-45
2021/04/21 04:23:12;;;;;;;11.50;8.15;;;;;;;3.44;83.06;95582.34;4971331;28;20149;-45
2021/04/21 04:25:46;;;;;;;12.18;8.15;;;;;;;3.34;83.10;95579.84;4972399;28;20062;-44
2021/04/21 04:28:12;;;;;;;12.50;8.80;;;;;;;3.34;82.82;95579.84;4971262;28;20057;-44
2021/04/21 04:30:41;;;;;;;14.82;8.35;;;;;;;3.30;82.76;95580.75;4971400;28;20058;-46
2021/04/21 04:33:09;;;;;;;15.63;8.05;;;;;;;3.28;83.11;95581.84;4970485;28;20054;-47
2021/04/21 04:35:37;;;;;;;11.63;8.23;;;;;;;3.36;83.00;95579.56;4971956;28;20051;-42
2021/04/21 04:38:04;;;;;;;11.80;8.15;;;;;;;3.34;82.95;95587.09;4972167;28;20082;-44
2021/04/21 04:40:33;;;;;;;10.25;7.22;;;;;;;3.33;82.75;95585.50;4971591;28;20508;-43
2021/04/21 04:43:00;;;;;;;14.70;7.82;;;;;;;3.35;82.91;95588.66;4971178;28;20047;-43
2021/04/21 04:45:31;;;;;;;13.25;8.38;;;;;;;3.33;83.35;95588.19;4971981;28;20076;-45
2021/04/21 04:48:07;;;;;;;11.80;7.75;;;;;;;3.35;84.04;95589.47;4989750;28;20047;-42
2021/04/21 04:50:38;;;;;;;14.45;8.40;;;;;;;3.45;83.76;95586.63;4973263;28;20059;-49
2021/04/21 04:53:07;;;;;;;11.90;7.65;;;;;;;3.53;83.49;95597.72;4952414;28;20448;-48
2021/04/21 04:55:35;;;;;;;11.25;7.53;;;;;;;3.53;83.40;95597.72;4952871;28;20055;-48
2021/04/21 04:58:02;;;;;;;12.68;8.43;;;;;;;3.51;82.92;95604.16;4952579;28;20111;-45
2021/04/21 05:00:31;;;;;;;14.20;8.82;;;;;;;3.55;82.42;95607.03;4966340;28;20114;-48
2021/04/21 05:03:14;;;;;;;11.57;7.68;;;;;;;3.61;82.23;95611.22;4971541;28;20051;-48
2021/04/21 05:05:40;;;;;;;15.40;8.65;;;;;;;3.63;82.62;95610.91;4971984;28;20058;-46
2021/04/21 05:08:17;;;;;;;14.48;8.30;;;;;;;3.77;82.45;95616.25;4971046;28;20055;-47
2021/04/21 05:10:53;;;;;;;13.80;8.60;;;;;;;3.84;82.43;95616.69;4979770;28;20058;-47
2021/04/21 05:13:22;;;;;;;13.05;8.25;;;;;;;3.82;82.35;95614.28;4970114;28;20058;-45
2021/04/21 05:16:14;;;;;;;14.07;8.60;;;;;;;3.85;81.90;95621.72;4959607;28;20106;-48
2021/04/21 05:18:59;;;;;;;12.90;7.90;;;;;;;3.95;81.55;95626.88;4954049;28;20134;-48
2021/04/21 05:22:10;;;;;;;12.93;8.18;;;;;;;3.88;81.57;95621.13;4970974;28;20077;-46
2021/04/21 05:25:00;;;;;;;12.75;8.40;;;;;;;4.07;80.70;95631.75;4964415;28;20047;-46
2021/04/21 05:28:09;;;;;;;11.68;7.95;;;;;;;4.21;80.71;95635.22;4971771;28;20097;-45
2021/04/21 05:30:59;;;;;;;11.98;8.52;;;;;;;4.30;80.80;95637.19;4958788;28;20058;-47
2021/04/21 05:34:10;;;;;;;12.63;7.85;;;;;;;4.42;80.54;95640.16;4971914;28;20054;-50
2021/04/21 05:36:55;;;;;;;11.02;8.07;;;;;;;4.61;79.51;95640.00;4962439;28;20083;-48
2021/04/21 05:39:36;;;;;;;13.23;8.55;;;;;;;4.64;78.67;95642.09;4969542;28;20059;-49
2021/04/21 05:42:56;;;;;;;10.90;7.88;;;;;;;4.54;78.76;95650.34;4973531;28;20063;-48
2021/04/21 05:45:48;;;;;;;13.23;8.30;;;;;;;4.75;78.20;95648.06;4954114;29;20084;-45
2021/04/21 05:48:49;;;;;;;11.65;8.18;;;;;;;4.83;77.92;95645.44;4955413;28;20062;-50
2021/04/21 05:51:40;;;;;;;11.55;8.15;;;;;;;5.08;77.52;95645.97;4972793;28;20054;-47
2021/04/21 05:54:40;;;;;;;12.05;9.35;;;;;;;5.20;76.22;95646.22;4973391;28;20058;-48
2021/04/21 05:57:54;;;;;;;13.35;8.30;;;;;;;5.32;76.44;95642.97;4969886;28;20101;-47
2021/04/21 06:00:48;;;;;;;12.85;8.70;;;;;;;5.39;75.87;95651.38;4974008;28;20054;-47
2021/04/21 06:03:18;;;;;;;14.45;9.68;;;;;;;5.52;76.50;95645.13;4973993;28;20051;-50
2021/04/21 06:05:44;;;;;;;13.30;9.20;;;;;;;5.60;76.20;95649.78;4973456;28;20397;-51
2021/04/21 06:08:12;;;;;;;10.45;8.38;;;;;;;5.75;75.32;95647.78;4972108;28;20059;-48
2021/04/21 06:10:40;;;;;;;11.77;8.48;;;;;;;5.89;73.92;95637.00;4973632;28;20051;-50
2021/04/21 06:13:07;;;;;;;15.90;8.77;;;;;;;5.90;73.47;95639.34;4973355;28;20058;-48
2021/04/21 06:15:36;;;;;;;11.43;8.15;;;;;;;5.90;73.85;95633.97;4972298;28;20050;-45
2021/04/21 06:18:09;;;;;;;13.27;9.23;;;;;;;5.96;74.35;95646.22;4971334;28;20062;-48
2021/04/21 06:20:37;;;;;;;18.40;9.07;;;;;;;6.10;73.55;95646.09;4973181;28;20139;-45
2021/04/21 06:23:13;;;;;;;;;;;;;;;6.22;73.78;95646.31;4972783;28;20130;-49
2021/04/21 06:25:43;;;;;;;11.48;8.27;;;;;;;6.22;72.71;95646.31;4972919;28;19961;-48
2021/04/21 06:28:21;;;;;;;22.20;8.60;;;;;;;6.33;72.22;95650.28;4974067;28;20059;-49
2021/04/21 06:30:50;;;;;;;15.88;10.07;;;;;;;6.35;72.36;95649.19;4972361;28;20042;-48
2021/04/21 06:33:17;;;;;;;13.02;8.75;;;;;;;6.27;72.22;95646.19;4972835;28;20472;-48
2021/04/21 06:35:44;;;;;;;14.80;8.93;;;;;;;6.51;72.86;95650.34;4978438;28;20097;-47
2021/04/21 06:38:12;;;;;;;14.65;9.10;;;;;;;6.69;72.31;95651.94;4978459;28;20058;-48
2021/04/21 06:40:41;;;;;;;10.57;8.15;;;;;;;6.78;70.65;95652.75;4977808;28;20082;-50
2021/04/21 06:43:08;;;;;;;12.90;9.00;;;;;;;6.86;70.15;95661.16;4969268;28;20082;-46
2021/04/21 06:45:36;;;;;;;16.15;8.60;;;;;;;6.94;70.30;95655.00;4972017;28;20097;-46
2021/04/21 06:48:05;;;;;;;11.10;8.18;;;;;;;6.71;70.36;95657.03;4968820;28;20061;-46
2021/04/21 06:50:34;;;;;;;11.63;8.50;;;;;;;6.87;70.57;95665.44;4964668;28;20055;-48
2021/04/21 06:53:04;;;;;;;13.10;8.18;;;;;;;6.75;70.57;95661.44;4972372;28;20400;-47
2021/04/21 06:55:32;;;;;;;10.05;8.20;;;;;;;6.88;70.18;95665.09;4972174;28;20501;-47
2021/04/21 06:58:00;;;;;;;12.82;8.43;;;;;;;7.14;69.69;95658.97;4972333;28;20133;-46
2021/04/21 07:00:28;;;;;;;9.48;8.02;;;;;;;7.12;69.55;95656.59;4972127;28;20055;-47
2021/04/21 07:02:58;;;;;;;10.57;8.10;;;;;;;7.18;69.09;95658.03;4970204;28;20696;-48
2021/04/21 07:05:41;;;;;;;16.52;9.18;;;;;;;7.48;68.40;95666.22;4970196;28;20057;-49
2021/04/21 07:08:11;;;;;;;;;;;;;;;7.62;67.53;95657.97;4970700;28;20097;-46
2021/04/21 07:10:55;;;;;;;11.75;9.32;;;;;;;7.76;67.32;95663.94;4970812;28;19933;-48
2021/04/21 07:13:25;;;;;;;13.23;8.68;;;;;;;7.88;66.59;95671.38;4971793;28;20051;-45
2021/04/21 07:15:57;;;;;;;12.85;8.57;;;;;;;7.94;66.41;95664.72;4972725;28;20058;-48
2021/04/21 07:18:29;;;;;;;11.23;7.82;;;;;;;8.01;66.83;95677.69;4968614;28;20134;-47
2021/04/21 07:20:58;;;;;;;11.88;8.38;;;;;;;8.23;66.15;95676.66;4973266;28;20050;-49
2021/04/21 07:23:25;;;;;;;14.88;8.27;;;;;;;8.25;66.36;95675.22;4968599;28;20053;-45
2021/04/21 07:25:52;;;;;;;18.15;9.20;;;;;;;8.40;66.01;95684.72;4970441;28;20055;-47
2021/04/21 07:28:21;;;;;;;12.25;8.50;;;;;;;8.51;65.40;95677.03;4970689;28;20137;-51
2021/04/21 07:30:50;;;;;;;10.90;8.43;;;;;;;8.71;63.23;95675.50;4976114;28;20157;-50
2021/04/21 07:33:37;;;;;;;12.50;7.63;;;;;;;8.93;61.27;95677.13;4971245;28;20130;-50
2021/04/21 07:36:09;;;;;;;13.30;8.05;;;;;;;9.03;60.85;95682.91;4971664;28;20128;-53
2021/04/21 07:38:41;;;;;;;10.00;7.32;;;;;;;9.06;60.03;95682.25;4967619;28;20042;-50
2021/04/21 07:41:09;;;;;;;11.82;8.38;;;;;;;9.13;60.68;95679.84;4975552;28;20062;-49
2021/04/21 07:43:42;;;;;;;10.68;8.13;;;;;;;9.23;60.88;95678.66;4968476;28;20055;-48
2021/04/21 07:46:13;;;;;;;;;;;;;;;9.34;59.46;95673.66;4973490;28;20481;-49
2021/04/21 07:48:42;;;;;;;9.65;7.28;;;;;;;9.38;59.89;95671.88;4970780;28;20376;-48
2021/04/21 07:51:16;;;;;;;12.82;7.78;;;;;;;9.48;57.80;95660.66;4970526;28;20137;-47
2021/04/21 07:54:02;;;;;;;10.02;7.22;;;;;;;9.63;56.65;95677.38;4974080;28;20066;-49
2021/04/21 07:56:54;;;;;;;8.85;7.40;;;;;;;9.59;56.56;95669.16;4968826;28;20050;-48
2021/04/21 07:59:29;;;;;;;9.27;6.95;;;;;;;9.65;56.28;95681.34;4961154;28;20051;-46
2021/04/21 08:02:21;;;;;;;11.32;7.82;;;;;;;9.82;56.52;95675.75;4967487;28;21489;-51
2021/04/21 08:04:55;;;;;;;11.23;7.70;;;;;;;9.91;56.68;95666.75;4983513;28;20054;-48
2021/04/21 08:08:01;;;;;;;9.65;7.70;;;;;;;10.14;55.46;95675.25;4974063;28;20079;-49
2021/04/21 08:10:34;;;;;;;10.63;7.20;;;;;;;10.13;55.70;95673.69;4969011;28;20061;-51
2021/04/21 08:13:01;;;;;;;9.50;7.38;;;;;;;10.17;55.66;95675.41;4965671;28;20484;-49
2021/04/21 08:15:36;;;;;;;12.05;7.65;;;;;;;10.35;55.17;95670.59;4971426;28;20047;-47
2021/04/21 08:18:14;;;;;;;10.95;7.50;;;;;;;10.51;54.52;95674.22;4965971;28;20058;-47
2021/04/21 08:20:52;;;;;;;11.10;8.13;;;;;;;10.55;54.47;95679.72;4972388;28;20062;-47
2021/04/21 08:23:31;;;;;;;9.20;7.35;;;;;;;10.62;54.31;95679.94;4970950;28;20051;-47
2021/04/21 08:25:58;;;;;;;10.20;7.60;;;;;;;10.79;55.04;95678.97;4972780;28;20042;-46
2021/04/21 08:28:25;;;;;;;12.13;7.82;;;;;;;10.94;54.20;95677.47;4972185;28;20051;-49
2021/04/21 08:30:59;;;;;;;10.00;8.00;;;;;;;10.81;53.51;95671.25;4970107;28;20058;-49
2021/04/21 08:33:33;;;;;;;12.93;8.48;;;;;;;10.91;53.55;95676.22;4978055;28;20046;-50
2021/04/21 08:36:00;;;;;;;11.82;8.07;;;;;;;10.83;53.25;95670.94;4984922;28;20050;-45
2021/04/21 08:38:26;;;;;;;12.15;8.13;;;;;;;10.83;53.40;95673.66;4977736;28;20062;-46
2021/04/21 08:40:53;;;;;;;11.50;8.57;;;;;;;11.09;52.59;95670.56;4985474;28;20050;-48
2021/04/21 08:43:20;;;;;;;11.88;9.32;;;;;;;11.12;52.74;95675.31;4973864;28;20511;-50
2021/04/21 08:45:47;;;;;;;13.00;10.00;;;;;;;11.25;51.55;95673.34;4969781;28;20093;-47
2021/04/21 08:48:15;;;;;;;13.00;9.43;;;;;;;11.48;51.73;95671.69;4972282;28;20051;-51
2021/04/21 08:50:43;;;;;;;11.18;8.75;;;;;;;11.41;51.46;95666.88;4972769;28;20059;-47
2021/04/21 08:53:11;;;;;;;13.75;9.18;;;;;;;11.44;51.29;95668.91;4966862;28;20058;-48
2021/04/21 08:55:39;;;;;;;12.60;8.65;;;;;;;11.14;51.24;95667.59;4969698;28;20137;-48
2021/04/21 08:58:08;;;;;;;16.45;9.15;;;;;;;11.37;51.26;95676.78;4969672;28;20369;-48
2021/04/21 09:00:36;;;;;;;12.93;8.85;;;;;;;11.44;51.23;95668.91;4972780;28;20057;-48
2021/04/21 09:03:02;;;;;;;14.73;9.77;;;;;;;11.61;51.24;95675.94;4974833;28;20150;-48
2021/04/21 09:05:29;;;;;;;15.90;9.85;;;;;;;11.87;51.25;95672.81;4973037;28;20055;-51
2021/04/21 09:07:56;;;;;;;13.80;9.27;;;;;;;11.91;50.42;95672.91;4973670;28;20197;-49
2021/04/21 09:10:22;;;;;;;12.63;9.40;;;;;;;11.61;49.78;95678.66;4975544;28;20047;-51
2021/04/21 09:12:49;;;;;;;14.55;10.05;;;;;;;11.72;49.93;95670.81;4981379;28;20042;-49
2021/04/21 09:15:17;;;;;;;13.75;9.52;;;;;;;11.92;49.74;95675.25;4970348;28;20158;-52
2021/04/21 09:17:47;;;;;;;13.40;9.52;;;;;;;12.16;49.55;95668.91;4972719;28;20066;-47
2021/04/21 09:20:18;;;;;;;13.10;9.27;;;;;;;12.34;50.20;95671.28;4974957;28;20062;-50
2021/04/21 09:23:11;;;;;;;12.73;10.25;;;;;;;12.44;47.94;95669.97;4970319;28;20071;-48
2021/04/21 09:25:47;;;;;;;12.10;10.02;;;;;;;12.43;48.07;95671.13;4968353;28;20055;-47
2021/04/21 09:28:15;;;;;;;12.63;10.15;;;;;;;12.46;48.17;95659.56;4974681;28;20496;-50
2021/04/21 09:30:50;;;;;;;13.05;10.48;;;;;;;12.21;47.51;95662.44;4964557;28;20051;-49
2021/04/21 09:33:18;;;;;;;13.45;10.05;;;;;;;12.57;48.35;95660.59;4972761;28;20070;-47
2021/04/21 09:35:46;;;;;;;13.93;10.07;;;;;;;12.84;47.43;95667.84;4971990;28;20567;-47
2021/04/21 09:38:16;;;;;;;13.25;9.75;;;;;;;12.94;47.07;95663.03;4967921;28;20109;-50
2021/04/21 09:40:44;;;;;;;15.52;10.55;;;;;;;12.77;46.69;95661.44;4973357;28;20051;-50
2021/04/21 09:43:15;;;;;;;15.23;9.85;;;;;;;12.70;46.26;95662.06;4972011;28;20420;-48
2021/04/21 09:45:44;;;;;;;14.27;10.52;;;;;;;12.92;46.33;95665.28;4974360;28;20129;-49
2021/04/21 09:48:16;;;;;;;16.27;11.90;;;;;;;13.24;47.23;95666.81;4974594;28;20445;-50
2021/04/21 09:50:54;;;;;;;12.55;10.68;;;;;;;13.21;45.79;95667.50;4972897;28;20452;-51
2021/04/21 09:53:24;;;;;;;14.88;9.90;;;;;;;13.26;45.38;95669.19;4973167;28;20058;-51
2021/04/21 09:55:58;;;;;;;14.98;10.10;;;;;;;12.80;45.62;95660.75;4969828;28;20462;-47
2021/04/21 09:58:34;;;;;;;13.68;10.30;;;;;;;13.01;44.95;95663.97;4973989;28;20479;-50
2021/04/21 10:01:24;;;;;;;12.43;10.57;;;;;;;13.06;45.44;95665.59;4970689;28;20055;-52
2021/04/21 10:04:22;;;;;;;12.70;10.85;;;;;;;12.96;45.65;95663.44;4972392;28;20070;-50
2021/04/21 10:06:50;;;;;;;23.25;11.35;;;;;;;13.03;45.31;95671.75;4976011;28;20066;-59
2021/04/21 10:09:37;;;;;;;15.32;9.93;;;;;;;13.04;46.08;95667.91;4972257;28;20058;-48
2021/04/21 10:12:15;;;;;;;15.32;9.93;;;;;;;13.16;44.88;95659.63;4955319;28;20082;-49
2021/04/21 10:14:43;;;;;;;11.88;9.45;;;;;;;13.29;44.35;95669.25;4972634;28;20479;-47
2021/04/21 10:17:12;;;;;;;17.10;10.68;;;;;;;13.22;44.30;95658.19;4972971;28;20047;-48
2021/04/21 10:19:41;;;;;;;12.35;10.32;;;;;;;13.42;44.14;95663.69;4970188;28;20234;-49
2021/04/21 10:22:13;;;;;;;15.25;9.90;;;;;;;13.50;43.44;95657.25;4965807;28;20047;-48
2021/04/21 10:24:40;;;;;;;12.52;10.10;;;;;;;13.44;42.93;95662.19;4959054;28;20074;-50
2021/04/21 10:27:08;;;;;;;13.75;9.07;;;;;;;13.42;42.03;95659.06;4973551;28;20438;-49
2021/04/21 10:29:36;;;;;;;12.32;9.57;;;;;;;13.64;41.60;95656.75;4965234;28;20054;-49
2021/04/21 10:32:03;;;;;;;11.05;9.50;;;;;;;14.09;41.96;95653.31;4966983;28;20236;-50
2021/04/21 10:34:31;;;;;;;13.77;10.35;;;;;;;14.31;42.31;95646.34;4972869;28;20050;-51
2021/04/21 10:36:59;;;;;;;15.07;9.60;;;;;;;14.12;41.09;95651.81;4973029;28;20416;-50
2021/04/21 10:39:36;;;;;;;14.05;9.63;;;;;;;14.38;41.01;95645.66;4970701;28;20051;-47
2021/04/21 10:42:08;;;;;;;12.30;8.65;;;;;;;14.67;39.14;95641.50;4972111;28;20054;-49
2021/04/21 10:44:35;;;;;;;11.85;8.85;;;;;;;14.69;37.99;95641.94;4970715;28;20043;-49
2021/04/21 10:47:07;;;;;;;12.52;10.18;;;;;;;14.59;38.78;95640.59;4972323;28;20489;-46
2021/04/21 10:49:49;;;;;;;;;;;;;;;14.56;38.68;95641.34;4971047;28;20146;-49
2021/04/21 10:52:20;;;;;;;14.02;9.55;;;;;;;14.30;41.07;95628.44;4965528;28;19922;-49
2021/04/21 10:54:49;;;;;;;11.90;8.90;;;;;;;14.08;40.42;95632.72;4970757;28;20080;-48
2021/04/21 10:57:22;;;;;;;12.05;10.13;;;;;;;14.72;41.25;95627.56;4974352;28;20134;-48
2021/04/21 11:00:12;;;;;;;11.13;9.80;;;;;;;15.00;40.82;95618.25;4970369;28;20055;-49
2021/04/21 11:02:43;;;;;;;10.70;8.82;;;;;;;15.43;40.20;95623.09;4972620;28;20051;-47
2021/04/21 11:05:28;;;;;;;10.82;8.95;;;;;;;15.78;39.09;95618.44;4974088;28;20054;-49
2021/04/21 11:08:01;;;;;;;12.57;10.15;;;;;;;16.09;38.07;95622.69;4989392;23;20402;-49
2021/04/21 11:10:42;;;;;;;10.85;8.73;;;;;;;16.34;38.02;95620.16;5029404;28;20084;-53
2021/04/21 11:13:10;;;;;;;14.18;9.85;;;;;;;16.07;36.75;95619.53;5024400;28;20049;-47
2021/04/21 11:15:39;;;;;;;10.52;8.35;;;;;;;15.63;37.57;95614.75;5029085;28;20057;-46
2021/04/21 11:18:09;;;;;;;11.00;8.70;;;;;;;15.32;37.34;95605.81;5031347;28;20053;-47
2021/04/21 11:20:47;;;;;;;14.65;9.98;;;;;;;15.02;38.95;95605.81;5018254;28;20058;-48
2021/04/21 11:23:45;;;;;;;11.07;9.45;;;;;;;14.57;37.50;95614.91;5021961;28;20049;-46
2021/04/21 11:26:24;;;;;;;14.98;9.65;;;;;;;15.25;36.71;95599.50;5021671;28;20049;-52
2021/04/21 11:29:04;;;;;;;11.10;8.98;;;;;;;15.52;37.22;95592.81;5031266;28;20574;-45
2021/04/21 11:31:54;;;;;;;12.10;8.82;;;;;;;14.82;37.94;95596.19;5028855;28;20407;-46
2021/04/21 11:34:32;;;;;;;9.07;7.93;;;;;;;15.36;40.58;95605.84;5010722;28;20042;-50
2021/04/21 11:37:01;;;;;;;13.43;9.07;;;;;;;14.98;36.06;95602.25;5014319;28;20052;-50
2021/04/21 11:39:40;;;;;;;13.45;9.30;;;;;;;15.07;36.60;95600.03;5029924;28;20122;-49
2021/04/21 11:42:30;;;;;;;10.77;8.88;;;;;;;15.43;36.03;95608.66;5029831;28;20050;-51
2021/04/21 11:45:12;;;;;;;15.43;9.15;;;;;;;15.15;36.61;95600.94;5019755;28;20042;-46
2021/04/21 11:47:44;;;;;;;13.88;9.02;;;;;;;15.13;36.13;95598.56;5030256;28;20072;-49
2021/04/21 11:50:18;;;;;;;12.20;9.07;;;;;;;14.91;36.89;95599.44;5020587;28;20061;-51
2021/04/21 11:52:58;;;;;;;10.40;8.80;;;;;;;15.02;37.27;95592.22;5010617;28;20092;-46
2021/04/21 11:55:33;;;;;;;11.43;8.95;;;;;;;15.09;36.98;95595.03;5012814;28;20081;-51
2021/04/21 11:58:11;;;;;;;13.75;9.73;;;;;;;14.79;37.31;95594.22;5031283;28;20053;-52
2021/04/21 12:00:39;;;;;;;11.98;9.13;;;;;;;14.95;37.30;95595.63;5029367;28;20065;-46
2021/04/21 12:03:27;;;;;;;11.20;9.40;;;;;;;14.46;36.99;95588.25;5024281;28;20124;-47
2021/04/21 12:06:11;;;;;;;10.52;8.60;;;;;;;15.72;35.39;95590.72;5015053;28;20415;-51
2021/04/21 12:08:44;;;;;;;11.50;9.40;;;;;;;16.95;34.67;95587.88;5029397;28;20075;-46